sensor_id;sensor_type;location;lat;lon;timestamp;P1;durP1;ratioP1;P2;durP2;ratioP2
59998;SDS011;45859;51.378;6.736;2023-05-15T00:01:42;37.17;;;29.53;;
59998;SDS011;45859;51.378;6.736;2023-05-15T00:04:08;43.40;;;28.57;;
59998;SDS011;45859;51.378;6.736;2023-05-15T00:06:33;39.80;;;28.73;;
59998;SDS011;45859;51.378;6.736;2023-05-15T00:08:59;37.97;;;28.77;;
59998;SDS011;45859;51.378;6.736;2023-05-15T00:11:25;38.20;;;29.13;;
59998;SDS011;45859;51.378;6.736;2023-05-15T00:13:52;44.73;;;30.07;;
59998;SDS011;45859;51.378;6.736;2023-05-15T00:16:18;35.73;;;28.90;;
59998;SDS011;45859;51.378;6.736;2023-05-15T00:18:43;40.33;;;30.53;;
59998;SDS011;45859;51.378;6.736;2023-05-15T00:21:09;45.90;;;31.20;;
59998;SDS011;45859;51.378;6.736;2023-05-15T00:23:35;40.57;;;30.03;;
59998;SDS011;45859;51.378;6.736;2023-05-15T00:26:00;40.73;;;30.33;;
59998;SDS011;45859;51.378;6.736;2023-05-15T00:28:26;39.93;;;30.70;;
59998;SDS011;45859;51.378;6.736;2023-05-15T00:30:52;41.43;;;30.93;;
59998;SDS011;45859;51.378;6.736;2023-05-15T00:33:17;43.73;;;30.33;;
59998;SDS011;45859;51.378;6.736;2023-05-15T00:35:43;40.10;;;30.30;;
59998;SDS011;45859;51.378;6.736;2023-05-15T00:38:09;39.90;;;30.97;;
59998;SDS011;45859;51.378;6.736;2023-05-15T00:40:34;45.67;;;31.77;;
59998;SDS011;45859;51.378;6.736;2023-05-15T00:43:01;38.13;;;30.17;;
59998;SDS011;45859;51.378;6.736;2023-05-15T00:45:28;42.73;;;30.33;;
59998;SDS011;45859;51.378;6.736;2023-05-15T00:47:54;42.20;;;31.40;;
59998;SDS011;45859;51.378;6.736;2023-05-15T00:50:22;39.67;;;30.67;;
59998;SDS011;45859;51.378;6.736;2023-05-15T00:52:48;41.30;;;30.73;;
59998;SDS011;45859;51.378;6.736;2023-05-15T00:55:14;39.97;;;30.23;;
59998;SDS011;45859;51.378;6.736;2023-05-15T00:57:43;40.47;;;30.50;;
59998;SDS011;45859;51.378;6.736;2023-05-15T01:00:09;37.10;;;28.63;;
59998;SDS011;45859;51.378;6.736;2023-05-15T01:02:36;37.90;;;29.93;;
59998;SDS011;45859;51.378;6.736;2023-05-15T01:05:02;36.23;;;27.47;;
59998;SDS011;45859;51.378;6.736;2023-05-15T01:07:29;39.10;;;29.23;;
59998;SDS011;45859;51.378;6.736;2023-05-15T01:09:59;36.03;;;28.10;;
59998;SDS011;45859;51.378;6.736;2023-05-15T01:12:28;39.27;;;28.40;;
59998;SDS011;45859;51.378;6.736;2023-05-15T01:14:55;39.80;;;28.97;;
59998;SDS011;45859;51.378;6.736;2023-05-15T01:17:22;36.43;;;28.33;;
59998;SDS011;45859;51.378;6.736;2023-05-15T01:19:48;38.53;;;29.83;;
59998;SDS011;45859;51.378;6.736;2023-05-15T01:24:56;35.77;;;28.30;;
59998;SDS011;45859;51.378;6.736;2023-05-15T01:28:11;29.63;;;13.17;;
59998;SDS011;45859;51.378;6.736;2023-05-15T01:30:41;38.63;;;29.50;;
59998;SDS011;45859;51.378;6.736;2023-05-15T01:33:17;31.10;;;14.38;;
59998;SDS011;45859;51.378;6.736;2023-05-15T01:38:26;45.10;;;31.53;;
59998;SDS011;45859;51.378;6.736;2023-05-15T01:43:45;42.20;;;31.47;;
59998;SDS011;45859;51.378;6.736;2023-05-15T01:46:16;44.93;;;31.57;;
59998;SDS011;45859;51.378;6.736;2023-05-15T01:48:45;30.97;;;14.80;;
59998;SDS011;45859;51.378;6.736;2023-05-15T01:51:13;45.63;;;31.20;;
59998;SDS011;45859;51.378;6.736;2023-05-15T01:53:40;39.57;;;30.33;;
59998;SDS011;45859;51.378;6.736;2023-05-15T01:56:08;41.83;;;31.53;;
59998;SDS011;45859;51.378;6.736;2023-05-15T02:01:04;40.67;;;29.80;;
59998;SDS011;45859;51.378;6.736;2023-05-15T02:03:31;38.77;;;28.90;;
59998;SDS011;45859;51.378;6.736;2023-05-15T02:05:58;39.83;;;29.13;;
59998;SDS011;45859;51.378;6.736;2023-05-15T02:08:26;37.13;;;28.77;;
59998;SDS011;45859;51.378;6.736;2023-05-15T02:10:53;37.27;;;29.33;;
59998;SDS011;45859;51.378;6.736;2023-05-15T02:13:21;39.87;;;28.00;;
59998;SDS011;45859;51.378;6.736;2023-05-15T02:15:48;35.83;;;28.87;;
59998;SDS011;45859;51.378;6.736;2023-05-15T02:18:13;35.27;;;28.73;;
59998;SDS011;45859;51.378;6.736;2023-05-15T02:20:39;39.33;;;28.57;;
59998;SDS011;45859;51.378;6.736;2023-05-15T02:23:05;35.87;;;28.23;;
59998;SDS011;45859;51.378;6.736;2023-05-15T02:25:37;37.50;;;27.17;;
59998;SDS011;45859;51.378;6.736;2023-05-15T02:28:32;35.63;;;27.43;;
59998;SDS011;45859;51.378;6.736;2023-05-15T02:31:04;36.23;;;27.67;;
59998;SDS011;45859;51.378;6.736;2023-05-15T02:36:20;35.30;;;26.80;;
59998;SDS011;45859;51.378;6.736;2023-05-15T02:38:52;26.17;;;12.97;;
59998;SDS011;45859;51.378;6.736;2023-05-15T02:41:19;25.05;;;11.27;;
59998;SDS011;45859;51.378;6.736;2023-05-15T02:43:47;30.73;;;24.83;;
59998;SDS011;45859;51.378;6.736;2023-05-15T02:46:15;31.87;;;24.80;;
59998;SDS011;45859;51.378;6.736;2023-05-15T02:48:43;31.83;;;25.50;;
59998;SDS011;45859;51.378;6.736;2023-05-15T02:51:10;29.10;;;24.00;;
59998;SDS011;45859;51.378;6.736;2023-05-15T02:53:39;30.30;;;25.20;;
59998;SDS011;45859;51.378;6.736;2023-05-15T02:56:06;25.42;;;11.23;;
59998;SDS011;45859;51.378;6.736;2023-05-15T02:58:33;28.50;;;23.73;;
59998;SDS011;45859;51.378;6.736;2023-05-15T03:00:59;29.73;;;24.37;;
59998;SDS011;45859;51.378;6.736;2023-05-15T03:03:25;28.80;;;24.20;;
59998;SDS011;45859;51.378;6.736;2023-05-15T03:05:51;32.60;;;23.10;;
59998;SDS011;45859;51.378;6.736;2023-05-15T03:08:17;30.17;;;24.23;;
59998;SDS011;45859;51.378;6.736;2023-05-15T03:10:43;31.53;;;24.90;;
59998;SDS011;45859;51.378;6.736;2023-05-15T03:13:09;30.80;;;24.07;;
59998;SDS011;45859;51.378;6.736;2023-05-15T03:15:35;33.73;;;25.43;;
59998;SDS011;45859;51.378;6.736;2023-05-15T03:18:03;32.73;;;24.50;;
59998;SDS011;45859;51.378;6.736;2023-05-15T03:20:31;30.00;;;24.80;;
59998;SDS011;45859;51.378;6.736;2023-05-15T03:22:57;32.03;;;25.23;;
59998;SDS011;45859;51.378;6.736;2023-05-15T03:25:25;31.57;;;24.63;;
59998;SDS011;45859;51.378;6.736;2023-05-15T03:27:53;33.73;;;25.37;;
59998;SDS011;45859;51.378;6.736;2023-05-15T03:30:19;32.63;;;24.90;;
59998;SDS011;45859;51.378;6.736;2023-05-15T03:32:45;34.33;;;26.83;;
59998;SDS011;45859;51.378;6.736;2023-05-15T03:35:10;35.43;;;25.80;;
59998;SDS011;45859;51.378;6.736;2023-05-15T03:37:38;34.80;;;26.90;;
59998;SDS011;45859;51.378;6.736;2023-05-15T03:40:04;34.47;;;26.07;;
59998;SDS011;45859;51.378;6.736;2023-05-15T03:42:34;36.60;;;27.73;;
59998;SDS011;45859;51.378;6.736;2023-05-15T03:44:59;35.20;;;27.17;;
59998;SDS011;45859;51.378;6.736;2023-05-15T03:47:25;38.73;;;28.00;;
59998;SDS011;45859;51.378;6.736;2023-05-15T03:49:51;35.97;;;26.97;;
59998;SDS011;45859;51.378;6.736;2023-05-15T03:52:19;38.77;;;27.80;;
59998;SDS011;45859;51.378;6.736;2023-05-15T03:54:45;38.87;;;28.50;;
59998;SDS011;45859;51.378;6.736;2023-05-15T03:57:11;37.60;;;29.03;;
59998;SDS011;45859;51.378;6.736;2023-05-15T03:59:37;38.63;;;28.43;;
59998;SDS011;45859;51.378;6.736;2023-05-15T04:02:06;40.17;;;28.37;;
59998;SDS011;45859;51.378;6.736;2023-05-15T04:04:35;39.73;;;30.20;;
59998;SDS011;45859;51.378;6.736;2023-05-15T04:07:01;41.47;;;30.23;;
59998;SDS011;45859;51.378;6.736;2023-05-15T04:09:31;45.57;;;30.60;;
59998;SDS011;45859;51.378;6.736;2023-05-15T04:12:00;38.73;;;30.63;;
59998;SDS011;45859;51.378;6.736;2023-05-15T04:14:28;42.03;;;31.33;;
59998;SDS011;45859;51.378;6.736;2023-05-15T04:16:57;40.87;;;31.70;;
59998;SDS011;45859;51.378;6.736;2023-05-15T04:19:22;40.93;;;30.43;;
59998;SDS011;45859;51.378;6.736;2023-05-15T04:21:48;41.47;;;31.33;;
59998;SDS011;45859;51.378;6.736;2023-05-15T04:24:14;42.10;;;29.80;;
59998;SDS011;45859;51.378;6.736;2023-05-15T04:26:40;40.30;;;29.30;;
59998;SDS011;45859;51.378;6.736;2023-05-15T04:29:08;40.93;;;30.00;;
59998;SDS011;45859;51.378;6.736;2023-05-15T04:31:34;39.70;;;31.60;;
59998;SDS011;45859;51.378;6.736;2023-05-15T04:34:00;42.07;;;30.70;;
59998;SDS011;45859;51.378;6.736;2023-05-15T04:36:29;39.07;;;30.33;;
59998;SDS011;45859;51.378;6.736;2023-05-15T04:38:55;43.70;;;31.60;;
59998;SDS011;45859;51.378;6.736;2023-05-15T04:41:21;43.43;;;31.57;;
59998;SDS011;45859;51.378;6.736;2023-05-15T04:43:47;39.30;;;30.87;;
59998;SDS011;45859;51.378;6.736;2023-05-15T04:46:13;43.13;;;32.30;;
59998;SDS011;45859;51.378;6.736;2023-05-15T04:48:39;42.00;;;31.00;;
59998;SDS011;45859;51.378;6.736;2023-05-15T04:51:05;37.93;;;29.83;;
59998;SDS011;45859;51.378;6.736;2023-05-15T04:53:31;41.57;;;30.23;;
59998;SDS011;45859;51.378;6.736;2023-05-15T04:55:57;37.20;;;29.30;;
59998;SDS011;45859;51.378;6.736;2023-05-15T04:58:23;43.83;;;31.50;;
59998;SDS011;45859;51.378;6.736;2023-05-15T05:00:48;38.63;;;29.80;;
59998;SDS011;45859;51.378;6.736;2023-05-15T05:03:14;38.07;;;29.67;;
59998;SDS011;45859;51.378;6.736;2023-05-15T05:05:43;34.53;;;28.47;;
59998;SDS011;45859;51.378;6.736;2023-05-15T05:08:14;35.07;;;26.63;;
59998;SDS011;45859;51.378;6.736;2023-05-15T05:10:42;31.90;;;25.20;;
59998;SDS011;45859;51.378;6.736;2023-05-15T05:13:08;31.23;;;25.10;;
59998;SDS011;45859;51.378;6.736;2023-05-15T05:15:33;35.00;;;26.50;;
59998;SDS011;45859;51.378;6.736;2023-05-15T05:18:02;32.10;;;24.40;;
59998;SDS011;45859;51.378;6.736;2023-05-15T05:20:28;30.23;;;24.43;;
59998;SDS011;45859;51.378;6.736;2023-05-15T05:22:54;31.13;;;23.70;;
59998;SDS011;45859;51.378;6.736;2023-05-15T05:25:20;29.60;;;24.60;;
59998;SDS011;45859;51.378;6.736;2023-05-15T05:27:46;31.03;;;24.50;;
59998;SDS011;45859;51.378;6.736;2023-05-15T05:30:14;28.23;;;23.07;;
59998;SDS011;45859;51.378;6.736;2023-05-15T05:32:40;28.47;;;23.63;;
59998;SDS011;45859;51.378;6.736;2023-05-15T05:35:06;28.77;;;23.57;;
59998;SDS011;45859;51.378;6.736;2023-05-15T05:37:32;30.23;;;24.00;;
59998;SDS011;45859;51.378;6.736;2023-05-15T05:39:57;31.73;;;24.17;;
59998;SDS011;45859;51.378;6.736;2023-05-15T05:42:26;35.17;;;25.07;;
59998;SDS011;45859;51.378;6.736;2023-05-15T05:44:54;30.07;;;24.63;;
59998;SDS011;45859;51.378;6.736;2023-05-15T05:47:19;28.40;;;22.57;;
59998;SDS011;45859;51.378;6.736;2023-05-15T05:49:45;29.63;;;23.77;;
59998;SDS011;45859;51.378;6.736;2023-05-15T05:52:12;30.53;;;24.03;;
59998;SDS011;45859;51.378;6.736;2023-05-15T05:54:40;30.17;;;23.40;;
59998;SDS011;45859;51.378;6.736;2023-05-15T05:57:09;28.20;;;23.27;;
59998;SDS011;45859;51.378;6.736;2023-05-15T05:59:35;29.53;;;23.57;;
59998;SDS011;45859;51.378;6.736;2023-05-15T06:02:01;29.10;;;22.97;;
59998;SDS011;45859;51.378;6.736;2023-05-15T06:04:30;27.63;;;22.83;;
59998;SDS011;45859;51.378;6.736;2023-05-15T06:06:57;26.33;;;22.47;;
59998;SDS011;45859;51.378;6.736;2023-05-15T06:09:23;26.67;;;23.00;;
59998;SDS011;45859;51.378;6.736;2023-05-15T06:11:52;27.87;;;23.07;;
59998;SDS011;45859;51.378;6.736;2023-05-15T06:14:18;31.03;;;22.77;;
59998;SDS011;45859;51.378;6.736;2023-05-15T06:16:43;27.13;;;22.33;;
59998;SDS011;45859;51.378;6.736;2023-05-15T06:19:09;29.30;;;21.87;;
59998;SDS011;45859;51.378;6.736;2023-05-15T06:21:35;29.40;;;22.60;;
59998;SDS011;45859;51.378;6.736;2023-05-15T06:24:00;25.17;;;21.00;;
59998;SDS011;45859;51.378;6.736;2023-05-15T06:26:26;24.13;;;19.97;;
59998;SDS011;45859;51.378;6.736;2023-05-15T06:28:52;22.47;;;20.10;;
59998;SDS011;45859;51.378;6.736;2023-05-15T06:31:18;24.40;;;19.43;;
59998;SDS011;45859;51.378;6.736;2023-05-15T06:33:46;26.60;;;20.70;;
59998;SDS011;45859;51.378;6.736;2023-05-15T06:36:12;24.53;;;20.53;;
59998;SDS011;45859;51.378;6.736;2023-05-15T06:38:38;22.43;;;19.93;;
59998;SDS011;45859;51.378;6.736;2023-05-15T06:41:04;21.77;;;19.43;;
59998;SDS011;45859;51.378;6.736;2023-05-15T06:43:32;23.00;;;19.87;;
59998;SDS011;45859;51.378;6.736;2023-05-15T06:45:57;24.93;;;21.50;;
59998;SDS011;45859;51.378;6.736;2023-05-15T06:48:25;26.60;;;20.63;;
59998;SDS011;45859;51.378;6.736;2023-05-15T06:50:53;29.60;;;21.87;;
59998;SDS011;45859;51.378;6.736;2023-05-15T06:53:19;24.50;;;21.17;;
59998;SDS011;45859;51.378;6.736;2023-05-15T06:55:45;26.50;;;21.33;;
59998;SDS011;45859;51.378;6.736;2023-05-15T06:58:10;24.90;;;21.00;;
59998;SDS011;45859;51.378;6.736;2023-05-15T07:00:36;28.40;;;20.80;;
59998;SDS011;45859;51.378;6.736;2023-05-15T07:03:02;23.60;;;20.67;;
59998;SDS011;45859;51.378;6.736;2023-05-15T07:05:28;24.27;;;20.03;;
59998;SDS011;45859;51.378;6.736;2023-05-15T07:07:54;25.63;;;19.77;;
59998;SDS011;45859;51.378;6.736;2023-05-15T07:10:19;24.20;;;19.70;;
59998;SDS011;45859;51.378;6.736;2023-05-15T07:12:45;24.20;;;19.90;;
59998;SDS011;45859;51.378;6.736;2023-05-15T07:15:11;25.80;;;19.53;;
59998;SDS011;45859;51.378;6.736;2023-05-15T07:17:41;24.02;;;21.52;;
59998;SDS011;45859;51.378;6.736;2023-05-15T07:20:07;24.57;;;20.27;;
59998;SDS011;45859;51.378;6.736;2023-05-15T07:22:33;24.13;;;21.43;;
59998;SDS011;45859;51.378;6.736;2023-05-15T07:24:59;24.87;;;19.93;;
59998;SDS011;45859;51.378;6.736;2023-05-15T07:27:25;23.70;;;20.33;;
59998;SDS011;45859;51.378;6.736;2023-05-15T07:29:53;22.73;;;19.13;;
59998;SDS011;45859;51.378;6.736;2023-05-15T07:32:19;20.42;;;17.60;;
59998;SDS011;45859;51.378;6.736;2023-05-15T07:34:45;20.60;;;17.70;;
59998;SDS011;45859;51.378;6.736;2023-05-15T07:37:10;19.83;;;17.05;;
59998;SDS011;45859;51.378;6.736;2023-05-15T07:39:39;21.23;;;17.67;;
59998;SDS011;45859;51.378;6.736;2023-05-15T07:42:04;19.73;;;17.30;;
59998;SDS011;45859;51.378;6.736;2023-05-15T07:44:30;22.40;;;16.50;;
59998;SDS011;45859;51.378;6.736;2023-05-15T07:46:56;20.52;;;17.10;;
59998;SDS011;45859;51.378;6.736;2023-05-15T07:49:28;18.25;;;15.88;;
59998;SDS011;45859;51.378;6.736;2023-05-15T07:51:54;17.58;;;14.73;;
59998;SDS011;45859;51.378;6.736;2023-05-15T07:54:20;19.30;;;14.88;;
59998;SDS011;45859;51.378;6.736;2023-05-15T07:56:45;16.15;;;14.27;;
59998;SDS011;45859;51.378;6.736;2023-05-15T07:59:11;15.50;;;13.77;;
59998;SDS011;45859;51.378;6.736;2023-05-15T08:01:37;16.88;;;13.48;;
59998;SDS011;45859;51.378;6.736;2023-05-15T08:04:05;17.23;;;13.68;;
59998;SDS011;45859;51.378;6.736;2023-05-15T08:06:32;21.23;;;13.80;;
59998;SDS011;45859;51.378;6.736;2023-05-15T08:09:00;18.17;;;13.38;;
59998;SDS011;45859;51.378;6.736;2023-05-15T08:11:29;15.30;;;13.68;;
59998;SDS011;45859;51.378;6.736;2023-05-15T08:13:55;15.93;;;13.13;;
59998;SDS011;45859;51.378;6.736;2023-05-15T08:16:24;15.55;;;13.95;;
59998;SDS011;45859;51.378;6.736;2023-05-15T08:18:53;15.73;;;12.60;;
59998;SDS011;45859;51.378;6.736;2023-05-15T08:21:25;14.75;;;12.48;;
59998;SDS011;45859;51.378;6.736;2023-05-15T08:23:56;14.05;;;12.63;;
59998;SDS011;45859;51.378;6.736;2023-05-15T08:26:23;14.35;;;12.95;;
59998;SDS011;45859;51.378;6.736;2023-05-15T08:28:49;14.90;;;13.25;;
59998;SDS011;45859;51.378;6.736;2023-05-15T08:31:15;14.40;;;12.90;;
59998;SDS011;45859;51.378;6.736;2023-05-15T08:33:41;14.38;;;12.82;;
59998;SDS011;45859;51.378;6.736;2023-05-15T08:36:09;15.35;;;12.70;;
59998;SDS011;45859;51.378;6.736;2023-05-15T08:38:35;14.88;;;13.38;;
59998;SDS011;45859;51.378;6.736;2023-05-15T08:41:03;13.73;;;12.27;;
59998;SDS011;45859;51.378;6.736;2023-05-15T08:43:34;15.98;;;13.23;;
59998;SDS011;45859;51.378;6.736;2023-05-15T08:46:03;16.15;;;12.98;;
59998;SDS011;45859;51.378;6.736;2023-05-15T08:48:30;13.60;;;12.20;;
59998;SDS011;45859;51.378;6.736;2023-05-15T08:50:59;13.73;;;12.43;;
59998;SDS011;45859;51.378;6.736;2023-05-15T08:53:25;14.40;;;11.93;;
59998;SDS011;45859;51.378;6.736;2023-05-15T08:55:53;14.73;;;13.23;;
59998;SDS011;45859;51.378;6.736;2023-05-15T08:58:18;14.68;;;13.27;;
59998;SDS011;45859;51.378;6.736;2023-05-15T09:00:49;19.75;;;13.00;;
59998;SDS011;45859;51.378;6.736;2023-05-15T09:03:15;15.57;;;12.70;;
59998;SDS011;45859;51.378;6.736;2023-05-15T09:05:43;12.88;;;11.52;;
59998;SDS011;45859;51.378;6.736;2023-05-15T09:08:11;16.20;;;12.65;;
59998;SDS011;45859;51.378;6.736;2023-05-15T09:10:39;11.93;;;10.73;;
59998;SDS011;45859;51.378;6.736;2023-05-15T09:13:06;14.90;;;11.23;;
59998;SDS011;45859;51.378;6.736;2023-05-15T09:15:33;14.50;;;12.55;;
59998;SDS011;45859;51.378;6.736;2023-05-15T09:17:58;12.23;;;10.73;;
59998;SDS011;45859;51.378;6.736;2023-05-15T09:22:52;16.58;;;11.15;;
59998;SDS011;45859;51.378;6.736;2023-05-15T09:28:04;11.00;;;9.68;;
59998;SDS011;45859;51.378;6.736;2023-05-15T09:30:30;11.23;;;9.13;;
59998;SDS011;45859;51.378;6.736;2023-05-15T09:33:00;11.65;;;10.20;;
59998;SDS011;45859;51.378;6.736;2023-05-15T09:35:29;12.23;;;9.88;;
59998;SDS011;45859;51.378;6.736;2023-05-15T09:37:59;12.50;;;11.20;;
59998;SDS011;45859;51.378;6.736;2023-05-15T09:40:28;13.13;;;10.85;;
59998;SDS011;45859;51.378;6.736;2023-05-15T09:42:54;10.93;;;9.75;;
59998;SDS011;45859;51.378;6.736;2023-05-15T09:45:20;11.63;;;10.18;;
59998;SDS011;45859;51.378;6.736;2023-05-15T09:47:46;12.00;;;9.68;;
59998;SDS011;45859;51.378;6.736;2023-05-15T09:50:12;10.57;;;9.43;;
59998;SDS011;45859;51.378;6.736;2023-05-15T09:52:48;11.40;;;10.30;;
59998;SDS011;45859;51.378;6.736;2023-05-15T09:55:15;10.65;;;9.52;;
59998;SDS011;45859;51.378;6.736;2023-05-15T09:57:43;13.60;;;9.65;;
59998;SDS011;45859;51.378;6.736;2023-05-15T10:00:09;10.50;;;9.40;;
59998;SDS011;45859;51.378;6.736;2023-05-15T10:02:39;12.35;;;9.52;;
59998;SDS011;45859;51.378;6.736;2023-05-15T10:05:05;11.23;;;9.55;;
59998;SDS011;45859;51.378;6.736;2023-05-15T10:07:35;10.38;;;9.27;;
59998;SDS011;45859;51.378;6.736;2023-05-15T10:10:01;12.27;;;9.45;;
59998;SDS011;45859;51.378;6.736;2023-05-15T10:12:28;11.02;;;9.50;;
59998;SDS011;45859;51.378;6.736;2023-05-15T10:14:56;16.08;;;9.23;;
59998;SDS011;45859;51.378;6.736;2023-05-15T10:17:24;12.30;;;10.27;;
59998;SDS011;45859;51.378;6.736;2023-05-15T10:19:51;15.65;;;11.68;;
59998;SDS011;45859;51.378;6.736;2023-05-15T10:22:21;14.65;;;10.93;;
59998;SDS011;45859;51.378;6.736;2023-05-15T10:24:57;12.00;;;10.88;;
59998;SDS011;45859;51.378;6.736;2023-05-15T10:27:35;13.65;;;10.60;;
59998;SDS011;45859;51.378;6.736;2023-05-15T10:30:04;14.60;;;11.60;;
59998;SDS011;45859;51.378;6.736;2023-05-15T10:32:31;15.23;;;12.68;;
59998;SDS011;45859;51.378;6.736;2023-05-15T10:34:58;18.40;;;11.75;;
59998;SDS011;45859;51.378;6.736;2023-05-15T10:37:24;12.93;;;11.50;;
59998;SDS011;45859;51.378;6.736;2023-05-15T10:39:51;13.40;;;11.57;;
59998;SDS011;45859;51.378;6.736;2023-05-15T10:42:19;10.95;;;9.85;;
59998;SDS011;45859;51.378;6.736;2023-05-15T10:44:47;10.75;;;9.65;;
59998;SDS011;45859;51.378;6.736;2023-05-15T10:47:13;15.07;;;11.52;;
59998;SDS011;45859;51.378;6.736;2023-05-15T10:49:39;11.80;;;10.48;;
59998;SDS011;45859;51.378;6.736;2023-05-15T10:52:05;14.13;;;10.00;;
59998;SDS011;45859;51.378;6.736;2023-05-15T10:54:30;11.85;;;10.02;;
59998;SDS011;45859;51.378;6.736;2023-05-15T10:56:56;10.98;;;9.90;;
59998;SDS011;45859;51.378;6.736;2023-05-15T10:59:29;13.57;;;11.90;;
59998;SDS011;45859;51.378;6.736;2023-05-15T11:01:56;17.02;;;12.20;;
59998;SDS011;45859;51.378;6.736;2023-05-15T11:04:41;13.95;;;10.27;;
59998;SDS011;45859;51.378;6.736;2023-05-15T11:07:12;10.55;;;9.20;;
59998;SDS011;45859;51.378;6.736;2023-05-15T11:09:39;11.68;;;8.95;;
59998;SDS011;45859;51.378;6.736;2023-05-15T11:12:05;11.00;;;7.90;;
59998;SDS011;45859;51.378;6.736;2023-05-15T11:14:34;12.45;;;9.80;;
59998;SDS011;45859;51.378;6.736;2023-05-15T11:17:04;12.70;;;11.50;;
59998;SDS011;45859;51.378;6.736;2023-05-15T11:19:35;14.55;;;11.55;;
59998;SDS011;45859;51.378;6.736;2023-05-15T11:22:20;12.05;;;10.85;;
59998;SDS011;45859;51.378;6.736;2023-05-15T11:24:47;15.32;;;10.93;;
59998;SDS011;45859;51.378;6.736;2023-05-15T11:27:15;12.40;;;10.50;;
59998;SDS011;45859;51.378;6.736;2023-05-15T11:32:39;15.65;;;11.73;;
59998;SDS011;45859;51.378;6.736;2023-05-15T11:35:10;14.48;;;12.38;;
59998;SDS011;45859;51.378;6.736;2023-05-15T11:45:33;15.02;;;13.05;;
59998;SDS011;45859;51.378;6.736;2023-05-15T11:48:02;14.20;;;11.95;;
59998;SDS011;45859;51.378;6.736;2023-05-15T11:50:31;16.48;;;12.38;;
59998;SDS011;45859;51.378;6.736;2023-05-15T11:53:04;12.63;;;11.32;;
59998;SDS011;45859;51.378;6.736;2023-05-15T11:55:32;12.93;;;11.10;;
59998;SDS011;45859;51.378;6.736;2023-05-15T11:57:59;11.77;;;10.43;;
59998;SDS011;45859;51.378;6.736;2023-05-15T12:00:25;13.23;;;9.35;;
59998;SDS011;45859;51.378;6.736;2023-05-15T12:02:50;15.45;;;9.43;;
59998;SDS011;45859;51.378;6.736;2023-05-15T12:05:16;10.02;;;8.55;;
59998;SDS011;45859;51.378;6.736;2023-05-15T12:07:42;9.00;;;8.10;;
59998;SDS011;45859;51.378;6.736;2023-05-15T12:10:08;8.95;;;7.95;;
59998;SDS011;45859;51.378;6.736;2023-05-15T12:12:35;10.35;;;7.93;;
59998;SDS011;45859;51.378;6.736;2023-05-15T12:15:04;8.50;;;7.70;;
59998;SDS011;45859;51.378;6.736;2023-05-15T12:17:33;9.60;;;8.70;;
59998;SDS011;45859;51.378;6.736;2023-05-15T12:20:00;10.70;;;9.60;;
59998;SDS011;45859;51.378;6.736;2023-05-15T12:22:25;10.48;;;8.82;;
59998;SDS011;45859;51.378;6.736;2023-05-15T12:24:51;11.02;;;9.93;;
59998;SDS011;45859;51.378;6.736;2023-05-15T12:27:17;12.77;;;10.52;;
59998;SDS011;45859;51.378;6.736;2023-05-15T12:29:43;13.50;;;10.60;;
59998;SDS011;45859;51.378;6.736;2023-05-15T12:32:09;12.25;;;10.95;;
59998;SDS011;45859;51.378;6.736;2023-05-15T12:34:34;15.57;;;11.32;;
59998;SDS011;45859;51.378;6.736;2023-05-15T12:37:00;13.15;;;11.75;;
59998;SDS011;45859;51.378;6.736;2023-05-15T12:39:26;12.73;;;10.65;;
59998;SDS011;45859;51.378;6.736;2023-05-15T12:41:52;12.57;;;11.13;;
59998;SDS011;45859;51.378;6.736;2023-05-15T12:44:18;15.00;;;12.75;;
59998;SDS011;45859;51.378;6.736;2023-05-15T12:46:45;18.27;;;13.95;;
59998;SDS011;45859;51.378;6.736;2023-05-15T12:49:11;13.93;;;12.45;;
59998;SDS011;45859;51.378;6.736;2023-05-15T12:51:43;12.23;;;11.07;;
59998;SDS011;45859;51.378;6.736;2023-05-15T12:54:16;13.48;;;9.88;;
59998;SDS011;45859;51.378;6.736;2023-05-15T12:56:42;10.85;;;9.13;;
59998;SDS011;45859;51.378;6.736;2023-05-15T12:59:09;10.07;;;8.95;;
59998;SDS011;45859;51.378;6.736;2023-05-15T13:01:35;13.00;;;9.77;;
59998;SDS011;45859;51.378;6.736;2023-05-15T13:04:03;11.70;;;10.60;;
59998;SDS011;45859;51.378;6.736;2023-05-15T13:06:28;15.88;;;11.43;;
59998;SDS011;45859;51.378;6.736;2023-05-15T13:08:54;12.80;;;11.45;;
59998;SDS011;45859;51.378;6.736;2023-05-15T13:11:20;18.75;;;15.68;;
59998;SDS011;45859;51.378;6.736;2023-05-15T13:13:47;16.70;;;15.10;;
59998;SDS011;45859;51.378;6.736;2023-05-15T13:16:17;20.00;;;16.67;;
59998;SDS011;45859;51.378;6.736;2023-05-15T13:18:48;19.13;;;15.88;;
59998;SDS011;45859;51.378;6.736;2023-05-15T13:21:14;20.42;;;17.70;;
59998;SDS011;45859;51.378;6.736;2023-05-15T13:23:39;20.48;;;18.35;;
59998;SDS011;45859;51.378;6.736;2023-05-15T13:26:05;20.70;;;18.50;;
59998;SDS011;45859;51.378;6.736;2023-05-15T13:28:31;20.95;;;18.73;;
59998;SDS011;45859;51.378;6.736;2023-05-15T13:30:57;23.67;;;20.67;;
59998;SDS011;45859;51.378;6.736;2023-05-15T13:33:23;24.15;;;21.30;;
59998;SDS011;45859;51.378;6.736;2023-05-15T13:35:49;21.77;;;19.50;;
59998;SDS011;45859;51.378;6.736;2023-05-15T13:38:15;22.95;;;20.27;;
59998;SDS011;45859;51.378;6.736;2023-05-15T13:40:41;21.88;;;19.60;;
59998;SDS011;45859;51.378;6.736;2023-05-15T13:43:06;23.65;;;18.80;;
59998;SDS011;45859;51.378;6.736;2023-05-15T13:45:32;20.80;;;18.38;;
59998;SDS011;45859;51.378;6.736;2023-05-15T13:47:58;20.83;;;17.58;;
59998;SDS011;45859;51.378;6.736;2023-05-15T13:50:24;20.20;;;18.08;;
59998;SDS011;45859;51.378;6.736;2023-05-15T13:52:49;18.92;;;16.98;;
59998;SDS011;45859;51.378;6.736;2023-05-15T13:55:15;19.95;;;17.85;;
59998;SDS011;45859;51.378;6.736;2023-05-15T13:57:41;18.48;;;16.48;;
59998;SDS011;45859;51.378;6.736;2023-05-15T14:00:08;18.65;;;16.75;;
59998;SDS011;45859;51.378;6.736;2023-05-15T14:02:37;17.10;;;14.40;;
59998;SDS011;45859;51.378;6.736;2023-05-15T14:05:07;15.38;;;13.38;;
59998;SDS011;45859;51.378;6.736;2023-05-15T14:07:33;14.25;;;12.70;;
59998;SDS011;45859;51.378;6.736;2023-05-15T14:09:59;13.00;;;11.70;;
59998;SDS011;45859;51.378;6.736;2023-05-15T14:12:25;13.85;;;12.13;;
59998;SDS011;45859;51.378;6.736;2023-05-15T14:14:50;14.02;;;12.40;;
59998;SDS011;45859;51.378;6.736;2023-05-15T14:17:16;16.02;;;12.32;;
59998;SDS011;45859;51.378;6.736;2023-05-15T14:19:42;15.98;;;10.77;;
59998;SDS011;45859;51.378;6.736;2023-05-15T14:22:09;12.52;;;11.13;;
59998;SDS011;45859;51.378;6.736;2023-05-15T14:24:35;12.05;;;10.55;;
59998;SDS011;45859;51.378;6.736;2023-05-15T14:27:00;15.10;;;10.93;;
59998;SDS011;45859;51.378;6.736;2023-05-15T14:29:26;14.35;;;12.73;;
59998;SDS011;45859;51.378;6.736;2023-05-15T14:31:51;14.52;;;13.00;;
59998;SDS011;45859;51.378;6.736;2023-05-15T14:34:18;15.27;;;12.55;;
59998;SDS011;45859;51.378;6.736;2023-05-15T14:36:43;14.98;;;13.27;;
59998;SDS011;45859;51.378;6.736;2023-05-15T14:39:10;16.13;;;14.48;;
59998;SDS011;45859;51.378;6.736;2023-05-15T14:41:38;14.93;;;13.35;;
59998;SDS011;45859;51.378;6.736;2023-05-15T14:44:03;14.98;;;13.48;;
59998;SDS011;45859;51.378;6.736;2023-05-15T14:46:30;15.98;;;13.93;;
59998;SDS011;45859;51.378;6.736;2023-05-15T14:48:56;16.35;;;14.63;;
59998;SDS011;45859;51.378;6.736;2023-05-15T14:51:22;14.07;;;12.65;;
59998;SDS011;45859;51.378;6.736;2023-05-15T14:53:47;13.95;;;12.50;;